createdAt,value
2019-05-20T20:56:24.631Z,66.65
2019-05-20T20:58:50.730Z,66.60
2019-05-20T21:01:23.173Z,66.58
2019-05-20T21:06:35.578Z,66.70
2019-05-20T21:09:11.881Z,66.67
2019-05-20T21:11:51.147Z,66.83
2019-05-20T21:14:31.218Z,66.49
2019-05-20T21:17:09.935Z,66.67
2019-05-20T21:19:48.671Z,66.49
2019-05-20T21:22:28.919Z,66.29
2019-05-20T21:25:07.984Z,65.81
2019-05-20T21:27:46.619Z,66.93
2019-05-20T21:30:23.711Z,68.65
2019-05-20T21:33:08.700Z,68.57
2019-05-20T21:35:44.780Z,69.09
2019-05-20T21:38:22.156Z,69.73
2019-05-20T21:41:00.579Z,69.75
2019-05-20T21:43:36.431Z,70.43
2019-05-20T21:46:14.924Z,70.61
2019-05-20T21:48:53.880Z,71.01
2019-05-20T21:51:31.855Z,70.69
2019-05-20T21:54:07.998Z,70.76
2019-05-20T21:56:43.065Z,71.45
2019-05-20T21:59:20.191Z,71.37
2019-05-20T22:01:57.692Z,71.62
2019-05-20T22:04:35.036Z,71.66
2019-05-20T22:07:15.316Z,71.71
2019-05-20T22:09:53.079Z,71.52
2019-05-20T22:12:33.780Z,71.58
2019-05-20T22:15:12.917Z,71.59
2019-05-20T22:17:49.932Z,71.43
2019-05-20T22:20:28.836Z,71.71
2019-05-20T22:23:20.435Z,71.86
2019-05-20T22:25:53.010Z,71.93
2019-05-20T22:28:23.392Z,71.85
2019-05-20T22:30:54.568Z,71.94
2019-05-20T22:33:38.855Z,72.33
2019-05-20T22:35:57.432Z,72.75
2019-05-20T22:38:30.781Z,72.75
2019-05-20T22:41:01.241Z,72.55
2019-05-20T22:43:31.469Z,73.31
2019-05-20T22:46:01.695Z,73.33
2019-05-20T22:48:31.785Z,73.64
2019-05-20T22:51:01.930Z,73.24
2019-05-20T22:53:32.488Z,73.68
2019-05-20T22:56:02.929Z,73.60
2019-05-20T22:58:33.243Z,73.49
2019-05-20T23:01:03.353Z,73.62
2019-05-20T23:03:38.465Z,73.88
2019-05-20T23:06:10.281Z,73.58
2019-05-20T23:08:40.497Z,73.28
2019-05-20T23:11:10.943Z,73.00
2019-05-20T23:13:41.162Z,72.80
2019-05-20T23:16:11.529Z,73.05
2019-05-20T23:18:42.482Z,72.98
2019-05-20T23:21:12.969Z,72.90
2019-05-20T23:23:43.699Z,73.01
2019-05-20T23:26:13.851Z,73.06
2019-05-20T23:28:45.137Z,73.27
2019-05-20T23:31:15.649Z,73.13
2019-05-20T23:33:47.261Z,73.17
2019-05-20T23:36:18.848Z,73.77
2019-05-20T23:38:49.380Z,73.72
2019-05-20T23:41:19.633Z,73.88
2019-05-20T23:43:50.054Z,74.01
2019-05-20T23:46:20.656Z,74.78
2019-05-20T23:48:51.223Z,74.80
2019-05-20T23:51:21.830Z,74.68
2019-05-20T23:53:52.153Z,74.85
2019-05-20T23:56:23.481Z,75.12
2019-05-20T23:58:54.174Z,75.34
